Terminal Aerodrome Forecast
Issued by NWS

Home | Current Version | Previous Version | Text Only | Print | Product List | Glossary On
Versions: 1 2 3 4 5 6 7 8 9 10 11 12 13 14 15 16 17 18 19 20 21 22 23 24
000
FTUS45 KABQ 011300 AAA
TAFLVS
TAF AMD
KLVS 011301Z 0113/0212 12007KT P6SM SCT002 OVC006
      TEMPO 0113/0115 1/2SM FZFG VV002
     FM011700 18008KT P6SM VCFG SCT020
     FM012000 20011G18KT P6SM FEW040
     FM020200 17010KT P6SM FEW250=

USA.gov is the U.S. government's official web portal to all federal, state and local government web resources and services.